Time;durP1;ratioP1;P1;durP2;ratioP2;P2;SDS_P1;SDS_P2;PMS_P1;PMS_P2;Temp;Humidity;BMP_temperature;BMP_pressure;BME280_temperature;BME280_humidity;BME280_pressure;Samples;Min_cycle;Max_cycle;Signal;HPM_P1;HPM_P2
2022/03/06 00:01:27;;;;;;;10.20;8.57;;;;;;;18.89;32.83;101259.34;5073956;28;20044;-84
2022/03/06 00:03:55;;;;;;;10.40;8.55;;;;;;;18.89;32.84;101266.56;5074241;28;20071;-84
2022/03/06 00:06:22;;;;;;;9.65;8.65;;;;;;;18.89;32.97;101255.81;5073390;28;20053;-83
2022/03/06 00:08:50;;;;;;;8.85;7.90;;;;;;;18.89;32.73;101248.63;5070621;28;20045;-84
2022/03/06 00:11:18;;;;;;;11.15;9.10;;;;;;;18.89;32.69;101251.31;5072452;28;20051;-84
2022/03/06 00:13:45;;;;;;;10.07;7.78;;;;;;;18.89;32.69;101250.47;5073003;28;20045;-84
2022/03/06 00:16:13;;;;;;;9.75;8.65;;;;;;;18.89;32.57;101255.81;5073948;28;20395;-85
2022/03/06 00:18:40;;;;;;;8.70;7.80;;;;;;;18.89;32.63;101258.50;5072990;28;20052;-85
2022/03/06 00:21:09;;;;;;;10.10;8.40;;;;;;;18.89;32.80;101267.41;5073481;28;20385;-85
2022/03/06 00:23:36;;;;;;;9.52;7.88;;;;;;;18.88;32.57;101252.28;5080261;28;20045;-85
2022/03/06 00:26:04;;;;;;;9.02;8.13;;;;;;;18.89;32.57;101263.88;5074581;28;20045;-85
2022/03/06 00:28:31;;;;;;;11.85;9.02;;;;;;;18.88;32.63;101256.78;5076129;28;20040;-85
2022/03/06 00:30:59;;;;;;;9.73;8.07;;;;;;;18.89;32.75;101258.50;5074651;28;20052;-85
2022/03/06 00:33:26;;;;;;;9.48;8.50;;;;;;;18.88;32.69;101265.69;5074076;28;20511;-85
2022/03/06 00:35:54;;;;;;;10.40;8.88;;;;;;;18.90;32.66;101257.53;5073674;28;20048;-84
2022/03/06 00:38:21;;;;;;;8.95;8.02;;;;;;;18.89;32.84;101258.50;5055627;28;20053;-85
2022/03/06 00:40:48;;;;;;;11.05;7.82;;;;;;;18.89;32.85;101266.56;5073198;28;20412;-85
2022/03/06 00:43:16;;;;;;;9.45;8.20;;;;;;;18.89;32.68;101266.56;5073399;28;20049;-84
2022/03/06 00:45:45;;;;;;;11.63;8.75;;;;;;;18.88;32.69;101263.03;5073739;28;20415;-83
2022/03/06 00:48:12;;;;;;;9.65;8.55;;;;;;;18.89;32.63;101263.88;5073883;28;20051;-84
2022/03/06 00:50:41;;;;;;;12.48;8.35;;;;;;;18.89;32.63;101266.56;5073341;28;20052;-85
2022/03/06 00:53:08;;;;;;;9.52;7.68;;;;;;;18.88;32.60;101260.34;5071576;28;20075;-85
2022/03/06 00:55:36;;;;;;;9.32;8.23;;;;;;;18.87;32.64;101255.06;5072570;28;20044;-85
2022/03/06 00:58:06;;;;;;;11.40;8.18;;;;;;;18.88;32.40;101257.66;5072783;28;20053;-84
2022/03/06 01:00:39;;;;;;;9.02;8.15;;;;;;;18.89;32.79;101258.50;5071271;28;20048;-85
2022/03/06 01:03:09;;;;;;;8.80;7.80;;;;;;;18.87;32.54;101263.97;5071955;28;20075;-84
2022/03/06 01:05:37;;;;;;;9.80;8.13;;;;;;;18.88;32.64;101262.13;5072234;28;20052;-84
2022/03/06 01:08:05;;;;;;;8.95;8.05;;;;;;;18.87;32.68;101263.13;5073033;28;20048;-84
2022/03/06 01:10:34;;;;;;;9.55;7.72;;;;;;;18.88;32.60;101264.81;5056184;28;20370;-83
2022/03/06 01:13:04;;;;;;;9.77;8.15;;;;;;;18.87;32.69;101260.44;5052763;28;20119;-84
2022/03/06 01:15:32;;;;;;;9.75;8.02;;;;;;;18.87;32.80;101263.97;5053411;28;20045;-84
2022/03/06 01:17:59;;;;;;;10.45;8.38;;;;;;;18.87;32.79;101261.28;5053159;28;20053;-84
2022/03/06 01:20:27;;;;;;;9.63;7.95;;;;;;;18.86;32.87;101264.94;5051944;28;20053;-85
2022/03/06 01:22:54;;;;;;;8.60;7.68;;;;;;;18.87;32.83;101263.13;5052896;28;20055;-85
2022/03/06 01:25:22;;;;;;;8.75;7.38;;;;;;;18.87;32.97;101263.97;5056380;28;20056;-85
2022/03/06 01:27:49;;;;;;;7.93;7.13;;;;;;;18.87;32.74;101266.66;5055026;28;20076;-85
2022/03/06 01:30:21;;;;;;;8.30;7.38;;;;;;;18.86;33.08;101256.91;5055434;28;20053;-84
2022/03/06 01:32:49;;;;;;;9.75;8.10;;;;;;;18.86;32.89;101256.91;5056882;28;20053;-84
2022/03/06 01:35:17;;;;;;;9.70;7.60;;;;;;;18.85;32.88;101257.88;5056850;28;20045;-83
2022/03/06 01:37:45;;;;;;;7.93;7.13;;;;;;;18.86;32.96;101261.41;5056470;28;20052;-84
2022/03/06 01:40:14;;;;;;;7.85;7.03;;;;;;;18.86;33.16;101262.28;5056640;28;20045;-84
2022/03/06 01:42:43;;;;;;;10.57;7.70;;;;;;;18.86;33.07;101261.41;5056508;28;20052;-84
2022/03/06 01:45:12;;;;;;;8.13;7.00;;;;;;;18.86;33.20;101256.06;5057241;28;20048;-84
2022/03/06 01:47:43;;;;;;;10.40;8.25;;;;;;;18.85;33.14;101249.84;5055725;28;20056;-84
2022/03/06 01:50:18;;;;;;;8.50;7.70;;;;;;;18.86;33.13;101253.38;5055734;28;20056;-84
2022/03/06 01:52:48;;;;;;;8.68;7.43;;;;;;;18.85;33.18;101246.31;5055518;28;20099;-83
2022/03/06 01:55:17;;;;;;;9.02;7.75;;;;;;;18.85;33.39;101241.78;5055795;28;20060;-84
2022/03/06 01:57:46;;;;;;;8.98;7.63;;;;;;;18.84;33.25;101240.09;5056213;28;20049;-84
2022/03/06 02:00:20;;;;;;;7.65;6.90;;;;;;;18.85;33.24;101232.88;5038117;28;20059;-84
2022/03/06 02:02:48;;;;;;;7.53;6.82;;;;;;;18.84;33.03;101242.78;5054775;28;20049;-83
2022/03/06 02:05:16;;;;;;;9.60;7.72;;;;;;;18.84;33.01;101236.53;5056047;28;20045;-83
2022/03/06 02:07:43;;;;;;;8.60;7.63;;;;;;;18.84;32.96;101231.16;5055459;28;20053;-83
2022/03/06 02:10:14;;;;;;;8.88;7.80;;;;;;;18.83;33.15;101235.66;5060512;28;20041;-83
2022/03/06 02:12:42;;;;;;;8.43;6.95;;;;;;;18.85;32.93;101238.25;5061009;28;20534;-84
2022/03/06 02:15:11;;;;;;;8.05;7.18;;;;;;;18.84;33.05;101228.47;5054558;28;20056;-84
2022/03/06 02:17:39;;;;;;;7.82;6.97;;;;;;;18.83;32.89;101234.81;5055777;28;20044;-84
2022/03/06 02:20:12;;;;;;;9.43;7.15;;;;;;;18.83;33.13;101227.63;5055633;28;20049;-85
2022/03/06 02:22:42;;;;;;;7.38;6.68;;;;;;;18.83;33.19;101233.00;5055858;28;20048;-85
2022/03/06 02:25:22;;;;;;;8.00;7.20;;;;;;;18.83;33.08;101233.00;5056280;28;20060;-84
2022/03/06 02:27:52;;;;;;;10.75;8.07;;;;;;;18.82;33.12;101228.59;5054635;28;20124;-84
2022/03/06 02:30:23;;;;;;;7.70;6.90;;;;;;;18.83;33.16;101221.41;5053626;28;20053;-84
2022/03/06 02:32:52;;;;;;;7.60;6.70;;;;;;;18.83;33.14;101227.63;5055351;28;20396;-84
2022/03/06 02:35:21;;;;;;;9.02;6.85;;;;;;;18.82;33.22;101230.44;5053102;28;20045;-84
2022/03/06 02:37:48;;;;;;;8.00;6.90;;;;;;;18.82;33.11;101227.75;5054804;28;20045;-84
2022/03/06 02:40:17;;;;;;;8.00;7.20;;;;;;;18.82;33.13;101230.44;5055040;28;20045;-84
2022/03/06 02:42:47;;;;;;;7.45;6.75;;;;;;;18.82;33.08;101223.25;5054731;28;20402;-84
2022/03/06 02:45:17;;;;;;;8.32;6.47;;;;;;;18.82;33.13;101230.44;5054547;28;20076;-84
2022/03/06 02:47:45;;;;;;;7.97;6.95;;;;;;;18.81;33.13;101229.59;5055323;28;20048;-84
2022/03/06 02:50:18;;;;;;;8.23;7.25;;;;;;;18.81;33.25;101237.63;5055106;28;20404;-84
2022/03/06 02:52:46;;;;;;;8.27;6.75;;;;;;;18.81;33.12;101228.72;5054744;28;20053;-84
2022/03/06 02:55:16;;;;;;;8.77;7.07;;;;;;;18.81;33.22;101237.63;5054806;28;20057;-84
2022/03/06 02:57:43;;;;;;;7.40;6.70;;;;;;;18.81;32.93;101234.94;5055758;28;20053;-84
2022/03/06 03:00:14;;;;;;;6.93;6.10;;;;;;;18.81;33.14;101237.63;5055131;28;20052;-84
2022/03/06 03:02:42;;;;;;;8.07;6.68;;;;;;;18.81;33.04;101234.09;5055698;28;20056;-84
2022/03/06 03:05:11;;;;;;;7.32;6.43;;;;;;;18.81;33.00;101234.09;5054679;28;20056;-84
2022/03/06 03:07:40;;;;;;;7.72;6.93;;;;;;;18.80;33.02;101233.25;5054389;28;20051;-84
2022/03/06 03:10:09;;;;;;;7.10;6.40;;;;;;;18.81;32.94;101231.41;5054419;28;20040;-84
2022/03/06 03:12:37;;;;;;;7.57;6.57;;;;;;;18.80;33.08;101238.63;5062700;28;20412;-84
2022/03/06 03:15:06;;;;;;;7.68;6.88;;;;;;;18.80;32.96;101232.38;5053207;28;20045;-84
2022/03/06 03:17:33;;;;;;;7.07;6.32;;;;;;;18.80;33.02;101241.28;5054654;28;20495;-84
2022/03/06 03:20:01;;;;;;;7.40;6.28;;;;;;;18.78;33.03;101227.97;5054044;28;20048;-83
2022/03/06 03:22:29;;;;;;;8.20;7.38;;;;;;;18.80;32.82;101230.56;5072827;28;20051;-84
2022/03/06 03:24:56;;;;;;;7.38;6.68;;;;;;;18.79;33.00;101234.19;5074921;28;20044;-84
2022/03/06 03:27:24;;;;;;;7.10;6.32;;;;;;;18.78;32.86;101232.50;5074433;28;20052;-84
2022/03/06 03:29:52;;;;;;;8.05;6.85;;;;;;;18.78;32.98;101229.81;5074243;28;20072;-83
2022/03/06 03:32:19;;;;;;;7.95;6.57;;;;;;;18.78;32.97;101236.03;5073795;28;20045;-83
2022/03/06 03:34:46;;;;;;;8.20;6.47;;;;;;;18.77;32.97;101231.66;5073689;28;20056;-83
2022/03/06 03:37:14;;;;;;;7.30;6.38;;;;;;;18.77;33.05;101234.31;5073658;28;20045;-83
2022/03/06 03:39:41;;;;;;;6.85;6.15;;;;;;;18.77;32.88;101237.00;5073585;28;20045;-83
2022/03/06 03:42:08;;;;;;;7.45;6.25;;;;;;;18.77;32.95;101236.16;5072655;28;20048;-83
2022/03/06 03:44:36;;;;;;;7.90;6.30;;;;;;;18.76;33.00;101240.69;5073328;28;20045;-83
2022/03/06 03:47:03;;;;;;;6.63;6.03;;;;;;;18.76;33.09;101240.69;5072347;28;20049;-83
2022/03/06 03:49:31;;;;;;;6.80;6.10;;;;;;;18.76;32.79;101238.00;5073540;28;20430;-83
2022/03/06 03:51:58;;;;;;;8.05;6.70;;;;;;;18.76;33.05;101238.00;5073192;28;20052;-83
2022/03/06 03:54:25;;;;;;;7.45;6.30;;;;;;;18.77;32.98;101233.47;5073408;28;20060;-83
2022/03/06 03:56:53;;;;;;;7.97;7.13;;;;;;;18.76;32.89;101243.34;5073717;28;20053;-83
2022/03/06 03:59:20;;;;;;;8.07;7.07;;;;;;;18.76;32.86;101246.03;5072811;28;20041;-82
2022/03/06 04:01:48;;;;;;;6.80;6.10;;;;;;;18.76;32.92;101243.34;5072134;28;20056;-83
2022/03/06 04:04:15;;;;;;;7.70;6.57;;;;;;;18.75;32.79;101244.31;5072260;28;20045;-84
2022/03/06 04:06:43;;;;;;;8.68;6.43;;;;;;;18.76;32.87;101239.81;5073329;28;20054;-84
2022/03/06 04:09:10;;;;;;;8.80;6.50;;;;;;;18.76;32.95;101239.81;5071733;28;20052;-84
2022/03/06 04:11:37;;;;;;;7.10;6.25;;;;;;;18.76;32.96;101231.78;5070003;28;20045;-86
2022/03/06 04:14:05;;;;;;;7.45;6.25;;;;;;;18.75;32.90;101238.09;5052794;28;20049;-86
2022/03/06 04:16:32;;;;;;;7.57;6.18;;;;;;;18.75;32.94;101246.13;5052189;28;20045;-85
2022/03/06 04:19:00;;;;;;;7.53;6.82;;;;;;;18.75;32.71;101240.78;5053569;28;20067;-86
2022/03/06 04:21:27;;;;;;;6.88;5.80;;;;;;;18.75;32.81;101248.81;5053159;28;20041;-86
2022/03/06 04:23:54;;;;;;;6.50;5.80;;;;;;;18.75;32.80;101251.50;5052991;28;20386;-87
2022/03/06 04:26:22;;;;;;;7.03;6.10;;;;;;;18.75;32.70;101246.13;5053164;28;20049;-86
2022/03/06 04:28:49;;;;;;;7.63;6.55;;;;;;;18.75;32.66;101251.50;5053611;28;20369;-86
2022/03/06 04:31:16;;;;;;;7.03;6.03;;;;;;;18.75;32.65;101246.13;5052442;28;20416;-86
2022/03/06 04:33:44;;;;;;;6.25;5.53;;;;;;;18.74;32.66;101247.13;5052537;28;20045;-86
2022/03/06 04:36:11;;;;;;;7.15;6.38;;;;;;;18.74;32.63;101247.97;5053776;28;20060;-83
2022/03/06 04:38:41;;;;;;;6.68;5.97;;;;;;;18.74;32.60;101242.59;5052749;28;20048;-83
2022/03/06 04:41:09;;;;;;;6.95;6.18;;;;;;;18.73;32.71;101246.25;5052215;28;20048;-84
2022/03/06 04:43:37;;;;;;;6.32;5.72;;;;;;;18.74;32.97;101239.06;5053544;28;20412;-84
2022/03/06 04:46:05;;;;;;;7.55;6.60;;;;;;;18.74;32.94;101247.97;5053622;28;20130;-84
2022/03/06 04:48:33;;;;;;;8.30;6.50;;;;;;;18.73;33.02;101251.63;5053326;28;20045;-84
2022/03/06 04:51:00;;;;;;;6.75;5.63;;;;;;;18.73;33.17;101243.59;5053324;28;20045;-84
2022/03/06 04:53:28;;;;;;;7.43;6.45;;;;;;;18.71;33.02;101237.47;5053200;28;20424;-84
2022/03/06 04:55:55;;;;;;;7.03;5.93;;;;;;;18.72;32.99;101249.06;5053470;28;20072;-85
2022/03/06 04:58:22;;;;;;;7.03;6.28;;;;;;;18.73;33.23;101245.41;5055615;28;20056;-84
2022/03/06 05:00:50;;;;;;;7.68;6.45;;;;;;;18.71;33.14;101250.03;5057222;28;20374;-84
2022/03/06 05:03:17;;;;;;;7.43;6.28;;;;;;;18.72;33.16;101246.41;5057223;28;20052;-84
2022/03/06 05:05:45;;;;;;;6.72;5.97;;;;;;;18.71;33.21;101247.34;5055313;28;20052;-84
2022/03/06 05:08:12;;;;;;;6.80;5.97;;;;;;;18.70;33.15;101240.28;5056329;28;20056;-85
2022/03/06 05:10:39;;;;;;;6.78;6.10;;;;;;;18.71;33.37;101241.97;5056729;28;20044;-85
2022/03/06 05:13:07;;;;;;;8.05;5.90;;;;;;;18.70;33.24;101234.91;5057132;28;20507;-85
2022/03/06 05:15:35;;;;;;;7.47;5.63;;;;;;;18.70;33.36;101241.13;5059742;28;20045;-84
2022/03/06 05:18:03;;;;;;;7.57;6.10;;;;;;;18.70;33.17;101246.50;5058320;28;20048;-84
2022/03/06 05:20:30;;;;;;;7.25;5.80;;;;;;;18.70;33.30;101246.50;5058211;28;20044;-84
2022/03/06 05:22:58;;;;;;;7.97;5.80;;;;;;;18.70;33.22;101251.00;5070827;28;20052;-84
2022/03/06 05:25:25;;;;;;;7.00;6.30;;;;;;;18.70;33.28;101251.00;5076865;28;20051;-84
2022/03/06 05:27:53;;;;;;;6.32;5.72;;;;;;;18.69;33.23;101255.50;5075060;28;20056;-83
2022/03/06 05:30:21;;;;;;;6.68;5.30;;;;;;;18.69;33.19;101247.44;5075688;28;20422;-84
2022/03/06 05:32:48;;;;;;;7.68;5.53;;;;;;;18.70;33.25;101240.28;5076716;28;20036;-83
2022/03/06 05:35:16;;;;;;;7.88;6.63;;;;;;;18.69;33.20;101244.75;5076452;28;20056;-83
2022/03/06 05:37:43;;;;;;;6.30;5.60;;;;;;;18.70;33.14;101259.06;5076370;28;20055;-83
2022/03/06 05:40:11;;;;;;;7.22;5.60;;;;;;;18.70;33.18;101256.38;5077094;28;20041;-83
2022/03/06 05:42:38;;;;;;;7.65;5.78;;;;;;;18.69;33.12;101260.00;5059248;28;20483;-83
2022/03/06 05:45:06;;;;;;;6.75;6.13;;;;;;;18.68;33.02;101256.47;5075970;28;20060;-83
2022/03/06 05:47:34;;;;;;;6.57;5.85;;;;;;;18.69;33.17;101260.84;5076122;28;20048;-83
2022/03/06 05:50:03;;;;;;;7.20;6.03;;;;;;;18.68;33.37;101261.84;5076746;28;20052;-83
2022/03/06 05:52:30;;;;;;;8.32;6.28;;;;;;;18.67;32.99;101257.41;5077064;28;20483;-83
2022/03/06 05:54:58;;;;;;;6.78;6.05;;;;;;;18.68;32.99;101261.84;5076402;28;20063;-85
2022/03/06 05:57:25;;;;;;;14.25;6.40;;;;;;;18.68;32.89;101267.19;5076681;28;20044;-84
2022/03/06 05:59:52;;;;;;;7.70;6.13;;;;;;;18.68;33.06;101266.34;5075895;28;20452;-84
2022/03/06 06:02:21;;;;;;;7.10;6.40;;;;;;;18.67;33.05;101262.78;5075782;28;20047;-83
2022/03/06 06:04:49;;;;;;;7.07;6.22;;;;;;;18.68;33.03;101267.19;5075751;28;20053;-83
2022/03/06 06:07:17;;;;;;;7.43;6.28;;;;;;;18.68;33.25;101266.34;5075752;28;20075;-83
2022/03/06 06:09:44;;;;;;;5.78;5.13;;;;;;;18.67;33.11;101273.50;5075247;28;20399;-83
2022/03/06 06:12:11;;;;;;;6.60;5.78;;;;;;;18.67;32.88;101270.81;5076360;28;20468;-84
2022/03/06 06:14:39;;;;;;;6.95;5.70;;;;;;;18.67;33.03;101273.50;5067227;28;20055;-84
2022/03/06 06:17:06;;;;;;;7.45;6.00;;;;;;;18.66;33.16;101271.81;5072674;28;20064;-84
2022/03/06 06:19:33;;;;;;;7.10;6.40;;;;;;;18.66;33.06;101273.63;5076645;28;20051;-84
2022/03/06 06:22:05;;;;;;;6.82;5.72;;;;;;;18.64;33.02;101276.44;5074855;28;20053;-84
2022/03/06 06:24:32;;;;;;;6.65;5.80;;;;;;;18.64;33.14;101279.13;5075735;28;20071;-84
2022/03/06 06:26:59;;;;;;;7.30;6.00;;;;;;;18.64;32.83;101278.28;5074199;28;20063;-84
2022/03/06 06:29:27;;;;;;;6.82;5.82;;;;;;;18.64;33.17;101279.13;5074697;28;20096;-84
2022/03/06 06:31:55;;;;;;;8.77;6.00;;;;;;;18.64;33.15;101275.59;5075629;28;20041;-85
2022/03/06 06:34:23;;;;;;;6.47;5.47;;;;;;;18.63;33.16;101274.72;5075743;28;20415;-84
2022/03/06 06:36:51;;;;;;;6.78;5.75;;;;;;;18.62;33.36;101281.06;5075410;28;20044;-84
2022/03/06 06:39:18;;;;;;;6.63;6.03;;;;;;;18.63;33.12;101284.59;5075385;28;20518;-84
2022/03/06 06:41:45;;;;;;;5.35;4.85;;;;;;;18.63;33.18;101287.28;5073901;28;20047;-84
2022/03/06 06:44:13;;;;;;;6.88;6.07;;;;;;;18.63;33.08;101287.28;5074830;28;20045;-84
2022/03/06 06:46:40;;;;;;;6.97;5.97;;;;;;;18.63;33.12;101290.81;5075047;28;20044;-84
2022/03/06 06:49:10;;;;;;;6.40;5.63;;;;;;;18.63;33.16;101293.47;5074842;28;20138;-84
2022/03/06 06:51:41;;;;;;;7.10;6.18;;;;;;;18.62;33.14;101294.47;5074390;28;20044;-85
2022/03/06 06:54:08;;;;;;;6.57;5.28;;;;;;;18.61;33.00;101290.06;5074324;28;20082;-85
2022/03/06 06:56:35;;;;;;;6.88;6.13;;;;;;;18.61;33.15;101306.16;5073023;28;20057;-85
2022/03/06 06:59:03;;;;;;;6.38;5.75;;;;;;;18.62;33.10;101304.34;5073878;28;20045;-85
2022/03/06 07:01:30;;;;;;;6.40;5.55;;;;;;;18.62;33.25;101302.50;5075008;28;20037;-85
2022/03/06 07:03:58;;;;;;;6.70;5.72;;;;;;;18.62;33.23;101313.22;5074455;28;20408;-84
2022/03/06 07:06:26;;;;;;;6.97;6.28;;;;;;;18.61;33.31;101316.91;5074410;28;20059;-84
2022/03/06 07:08:53;;;;;;;7.22;6.25;;;;;;;18.61;33.28;101308.84;5075108;28;20056;-84
2022/03/06 07:11:21;;;;;;;6.53;5.80;;;;;;;18.61;33.34;101308.84;5075453;28;20048;-84
2022/03/06 07:13:48;;;;;;;6.55;5.85;;;;;;;18.61;33.08;101306.16;5072890;28;20053;-84
2022/03/06 07:16:16;;;;;;;6.85;5.35;;;;;;;18.61;33.34;101310.69;5059874;28;20060;-84
2022/03/06 07:18:43;;;;;;;7.00;5.25;;;;;;;18.61;33.24;101298.13;5053826;28;20041;-84
2022/03/06 07:21:11;;;;;;;6.82;6.10;;;;;;;18.62;33.34;101307.88;5053435;28;20405;-84
2022/03/06 07:23:38;;;;;;;6.70;5.97;;;;;;;18.60;33.32;101296.41;5053746;28;20044;-84
2022/03/06 07:26:05;;;;;;;8.27;5.88;;;;;;;18.61;33.28;101303.50;5053667;28;20048;-84
2022/03/06 07:28:33;;;;;;;7.10;5.72;;;;;;;18.61;33.37;101297.28;5053786;28;20056;-84
2022/03/06 07:31:00;;;;;;;7.85;6.40;;;;;;;18.61;33.36;101303.50;5053047;28;20067;-84
2022/03/06 07:33:28;;;;;;;6.00;5.38;;;;;;;18.60;33.29;101304.47;5053931;28;20049;-85
2022/03/06 07:35:55;;;;;;;9.45;6.18;;;;;;;18.60;33.19;101304.47;5054040;28;20069;-84
2022/03/06 07:38:22;;;;;;;7.18;6.47;;;;;;;18.59;33.27;101302.72;5052543;28;20048;-84
2022/03/06 07:40:50;;;;;;;6.82;6.03;;;;;;;18.59;33.19;101299.19;5053430;28;20040;-85
2022/03/06 07:43:17;;;;;;;7.43;5.90;;;;;;;18.58;33.33;101306.38;5052435;28;20045;-85
2022/03/06 07:45:44;;;;;;;6.63;5.63;;;;;;;18.58;33.28;101301.03;5052457;28;20052;-87
2022/03/06 07:48:12;;;;;;;7.97;6.60;;;;;;;18.58;33.51;101311.75;5051999;28;20053;-85
2022/03/06 07:50:39;;;;;;;7.13;5.55;;;;;;;18.58;33.38;101313.59;5053721;28;20068;-85
2022/03/06 07:53:06;;;;;;;7.65;6.20;;;;;;;18.58;33.47;101310.91;5053033;28;20499;-86
2022/03/06 07:55:34;;;;;;;7.35;6.60;;;;;;;18.58;33.28;101309.06;5053563;28;20056;-88
2022/03/06 07:58:02;;;;;;;6.85;5.75;;;;;;;18.58;33.37;101313.59;5052635;28;20048;-85
2022/03/06 08:00:29;;;;;;;6.80;5.35;;;;;;;18.57;33.51;101315.41;5051920;28;20056;-85
2022/03/06 08:02:57;;;;;;;7.05;5.88;;;;;;;18.57;33.44;101311.88;5053698;28;20052;-85
2022/03/06 08:05:24;;;;;;;6.78;6.07;;;;;;;18.56;33.49;101313.72;5051970;28;20049;-84
2022/03/06 08:07:52;;;;;;;7.60;6.45;;;;;;;18.57;33.50;101314.56;5059791;28;20488;-84
2022/03/06 08:10:19;;;;;;;7.28;6.43;;;;;;;18.56;33.53;101305.66;5073569;28;20055;-84
2022/03/06 08:12:49;;;;;;;7.18;6.00;;;;;;;18.57;33.53;101317.25;5074357;28;20414;-84
2022/03/06 08:15:17;;;;;;;6.20;5.43;;;;;;;18.56;34.00;101313.72;5075082;28;20049;-84
2022/03/06 08:17:44;;;;;;;9.07;6.10;;;;;;;18.56;34.15;101313.72;5070272;28;20044;-84
2022/03/06 08:20:12;;;;;;;8.20;5.80;;;;;;;18.56;34.39;101319.06;5073647;28;20052;-83
2022/03/06 08:22:39;;;;;;;14.63;11.13;;;;;;;18.52;30.22;101318.44;5072877;28;20044;-83
2022/03/06 08:25:07;;;;;;;12.75;8.82;;;;;;;18.43;31.72;101319.13;5075430;28;20055;-83
2022/03/06 08:27:35;;;;;;;9.48;7.40;;;;;;;18.43;34.21;101321.81;5074064;28;20048;-84
2022/03/06 08:30:05;;;;;;;8.68;6.43;;;;;;;18.43;34.12;101308.41;5074598;28;20157;-84
2022/03/06 08:32:33;;;;;;;7.45;5.57;;;;;;;18.44;33.83;101314.63;5075795;28;20041;-84
2022/03/06 08:35:01;;;;;;;9.02;7.05;;;;;;;18.46;33.55;101316.22;5078953;28;20045;-86
2022/03/06 08:37:28;;;;;;;8.05;6.47;;;;;;;18.48;33.69;101314.28;5077470;28;20056;-83
2022/03/06 08:39:56;;;;;;;8.20;6.82;;;;;;;18.50;33.62;101317.69;5078572;28;20048;-82
2022/03/06 08:42:23;;;;;;;9.10;7.00;;;;;;;18.51;33.41;101316.75;5078225;28;20047;-81
2022/03/06 08:44:50;;;;;;;7.93;7.03;;;;;;;18.53;33.35;101316.63;5078093;28;20353;-84
2022/03/06 08:47:17;;;;;;;7.95;6.32;;;;;;;18.54;33.44;101315.63;5077602;28;20052;-83
2022/03/06 08:49:45;;;;;;;8.07;5.93;;;;;;;18.56;33.63;101315.53;5077861;28;20091;-83
2022/03/06 08:52:12;;;;;;;8.20;5.82;;;;;;;18.56;33.91;101315.53;5060384;28;20413;-83
2022/03/06 08:54:40;;;;;;;9.85;6.65;;;;;;;18.56;33.62;101313.72;5077079;28;20056;-83
2022/03/06 08:57:07;;;;;;;9.40;6.45;;;;;;;18.56;33.47;101311.03;5077857;28;20041;-82
2022/03/06 08:59:35;;;;;;;8.43;6.05;;;;;;;18.57;33.32;101301.16;5077757;28;20040;-83
2022/03/06 09:02:02;;;;;;;10.43;6.68;;;;;;;18.57;33.32;101304.69;5077927;28;20052;-84
2022/03/06 09:04:33;;;;;;;8.18;6.57;;;;;;;18.57;32.96;101303.84;5077915;28;20056;-83
2022/03/06 09:07:00;;;;;;;7.90;6.97;;;;;;;18.56;32.90;101308.34;5079179;28;20052;-85
2022/03/06 09:09:27;;;;;;;10.30;7.10;;;;;;;18.58;32.79;101305.53;5077922;28;20045;-84
2022/03/06 09:15:32;;;;;;;7.93;6.75;;;;;;;18.58;32.70;101301.03;5076447;28;20045;-84
2022/03/06 09:18:00;;;;;;;8.52;6.72;;;;;;;18.58;32.69;101306.38;5076364;28;20045;-83
2022/03/06 09:20:27;;;;;;;7.55;6.75;;;;;;;18.57;32.44;101307.38;5059324;28;20041;-84
2022/03/06 09:22:54;;;;;;;8.98;6.90;;;;;;;18.58;32.39;101306.38;5061747;28;20037;-84
2022/03/06 09:25:22;;;;;;;8.60;7.22;;;;;;;18.58;32.44;101292.97;5077764;28;20055;-85
2022/03/06 09:27:50;;;;;;;14.27;7.40;;;;;;;18.58;32.32;101306.38;5077732;28;20048;-84
2022/03/06 09:30:18;;;;;;;11.25;7.45;;;;;;;18.58;32.16;101300.19;5076323;28;20044;-84
2022/03/06 09:32:46;;;;;;;11.30;7.65;;;;;;;18.57;31.91;101291.28;5076875;28;20485;-83
2022/03/06 09:35:13;;;;;;;9.73;7.75;;;;;;;18.58;31.74;101300.19;5077315;28;20048;-85
2022/03/06 09:37:43;;;;;;;9.80;7.43;;;;;;;18.58;31.83;101294.81;5077094;28;20045;-83
2022/03/06 09:40:11;;;;;;;10.80;7.28;;;;;;;18.59;32.15;101288.47;5077540;28;20496;-81
2022/03/06 09:42:39;;;;;;;9.40;7.53;;;;;;;18.59;32.03;101289.31;5076692;28;20044;-84
2022/03/06 09:45:10;;;;;;;10.05;7.80;;;;;;;18.60;32.36;101295.56;5074812;28;20504;-84
2022/03/06 09:47:39;;;;;;;10.25;7.10;;;;;;;18.61;32.56;101290.06;5076278;28;20059;-83
2022/03/06 09:50:08;;;;;;;15.23;7.70;;;;;;;18.61;32.99;101291.91;5075431;28;20491;-83
2022/03/06 09:52:36;;;;;;;10.00;7.78;;;;;;;18.60;32.68;101296.41;5075836;28;20051;-85
2022/03/06 09:55:06;;;;;;;14.18;7.53;;;;;;;18.60;32.99;101298.25;5075714;28;20045;-85
2022/03/06 09:57:33;;;;;;;9.07;7.63;;;;;;;18.63;32.61;101288.13;5075973;28;20040;-88
2022/03/06 10:00:01;;;;;;;9.35;7.35;;;;;;;18.64;32.61;101295.22;5075745;28;20045;-89
2022/03/06 10:02:30;;;;;;;8.85;7.32;;;;;;;18.63;32.45;101293.47;5077430;28;20052;-88
2022/03/06 10:04:58;;;;;;;10.23;7.03;;;;;;;18.63;32.52;101288.13;5077534;28;20044;-88
2022/03/06 10:07:25;;;;;;;10.80;8.35;;;;;;;18.65;32.58;101280.81;5077238;28;20044;-87
2022/03/06 10:09:54;;;;;;;8.60;6.95;;;;;;;18.65;32.55;101294.25;5077046;28;20514;-86
2022/03/06 10:12:24;;;;;;;9.20;7.03;;;;;;;18.64;32.64;101284.50;5076390;28;20044;-87
2022/03/06 10:15:04;;;;;;;10.43;7.45;;;;;;;18.64;32.54;101276.44;5075281;28;20045;-88
2022/03/06 10:17:33;;;;;;;9.55;6.45;;;;;;;18.64;32.74;101275.59;5073230;28;20107;-89
2022/03/06 10:20:10;;;;;;;9.63;7.15;;;;;;;18.62;32.56;101278.38;5062987;28;20102;-89
2022/03/06 10:22:43;;;;;;;12.50;6.88;;;;;;;18.61;32.39;101278.50;5077098;28;20488;-90
2022/03/06 10:25:13;;;;;;;11.18;7.15;;;;;;;18.60;32.27;101274.97;5076050;28;20408;-87
2022/03/06 10:27:44;;;;;;;9.10;7.07;;;;;;;18.60;32.27;101269.59;5075065;28;20067;-86
2022/03/06 10:30:31;;;;;;;8.35;6.78;;;;;;;18.59;32.08;101275.91;5075626;28;20063;-86
2022/03/06 10:33:02;;;;;;;9.05;6.68;;;;;;;18.61;31.94;101274.00;5075667;28;20041;-84
2022/03/06 10:35:40;;;;;;;9.85;6.07;;;;;;;18.62;31.82;101270.31;5074701;28;20496;-86
2022/03/06 10:38:26;;;;;;;7.47;6.07;;;;;;;18.69;31.60;101276.94;5076341;28;20048;-87
2022/03/06 10:40:56;;;;;;;9.95;6.82;;;;;;;18.73;31.76;101267.72;5075272;28;20059;-86
2022/03/06 10:43:29;;;;;;;8.75;6.38;;;;;;;18.73;31.80;101270.41;5076014;28;20487;-85
2022/03/06 10:46:16;;;;;;;7.65;6.50;;;;;;;18.73;31.87;101264.19;5061836;28;20061;-86
2022/03/06 10:48:55;;;;;;;7.43;5.57;;;;;;;18.73;32.01;101264.19;5054107;28;20408;-83
2022/03/06 10:51:24;;;;;;;7.47;6.10;;;;;;;18.72;32.13;101265.16;5055226;28;20096;-83
2022/03/06 10:53:55;;;;;;;7.68;5.70;;;;;;;18.70;32.39;101259.06;5053287;28;20049;-84
2022/03/06 10:56:23;;;;;;;7.03;5.97;;;;;;;18.71;32.12;101260.75;5053180;28;20382;-83
2022/03/06 10:58:51;;;;;;;12.70;10.70;;;;;;;18.65;26.08;101256.69;5054407;28;20056;-84
2022/03/06 11:01:27;;;;;;;12.32;10.43;;;;;;;18.54;25.47;101245.94;5055388;28;20494;-84
2022/03/06 11:04:01;;;;;;;13.20;9.48;;;;;;;18.45;25.87;101249.31;5054016;28;20361;-84
2022/03/06 11:06:38;;;;;;;9.85;7.30;;;;;;;18.42;29.13;101257.56;5055181;28;20044;-83
2022/03/06 11:09:10;;;;;;;10.10;7.45;;;;;;;18.41;29.51;101248.69;5054954;28;20049;-84
2022/03/06 11:11:42;;;;;;;11.45;7.85;;;;;;;18.40;29.42;101246.97;5055088;28;20049;-83
2022/03/06 11:14:11;;;;;;;8.63;7.32;;;;;;;18.42;29.53;101236.13;5053843;28;20045;-86
2022/03/06 11:16:39;;;;;;;10.57;7.75;;;;;;;18.44;29.64;101244.94;5054300;28;20044;-82
2022/03/06 11:19:09;;;;;;;7.47;6.70;;;;;;;18.44;29.35;101240.41;5037022;28;20053;-83
2022/03/06 11:21:40;;;;;;;9.00;7.43;;;;;;;18.46;29.36;101232.25;5054705;28;20049;-81
2022/03/06 11:24:14;;;;;;;7.07;6.28;;;;;;;18.47;29.42;101223.22;5060847;28;20044;-82
2022/03/06 11:27:20;;;;;;;9.48;7.43;;;;;;;18.46;29.54;101225.06;5073348;28;20055;-82
2022/03/06 11:30:07;;;;;;;8.00;6.68;;;;;;;18.47;29.79;101215.19;5073665;28;20134;-82
2022/03/06 11:32:37;;;;;;;10.02;7.30;;;;;;;18.48;29.41;101219.59;5075291;28;20045;-84
2022/03/06 11:35:12;;;;;;;9.73;7.43;;;;;;;18.48;29.79;101216.91;5074037;28;20057;-83